Time;durP1;ratioP1;P1;durP2;ratioP2;P2;SDS_P1;SDS_P2;PMS_P1;PMS_P2;Temp;Humidity;BMP_temperature;BMP_pressure;BME280_temperature;BME280_humidity;BME280_pressure;Samples;Min_cycle;Max_cycle;Signal;HPM_P1;HPM_P2
2022/03/14 00:00:24;;;;;;;43.35;23.99;;;;;;;-4.04;83.22;102484.07;463748;113;930263;-68
2022/03/14 00:01:28;;;;;;;35.41;23.47;;;;;;;-4.04;83.16;102473.41;462825;113;922596;-67
2022/03/14 00:02:32;;;;;;;36.18;23.38;;;;;;;-4.04;83.18;102476.08;466453;113;922617;-69
2022/03/14 00:03:45;;;;;;;29.62;21.16;;;;;;;-4.04;83.20;102481.41;462724;113;922721;-68
2022/03/14 00:04:50;;;;;;;35.17;22.44;;;;;;;-4.04;83.21;102484.07;462098;113;930456;-70
2022/03/14 00:05:52;;;;;;;34.43;21.83;;;;;;;-4.02;83.18;102486.63;465908;113;922560;-68
2022/03/14 00:06:55;;;;;;;34.32;22.08;;;;;;;-4.02;83.17;102481.30;466164;113;922538;-68
2022/03/14 00:08:00;;;;;;;32.95;21.96;;;;;;;-4.02;83.20;102479.50;466605;113;923006;-70
2022/03/14 00:09:07;;;;;;;28.83;21.92;;;;;;;-4.03;83.03;102483.14;461774;113;930474;-67
2022/03/14 00:10:13;;;;;;;30.86;20.81;;;;;;;-4.03;83.03;102482.27;462855;113;923053;-69
2022/03/14 00:11:17;;;;;;;29.21;21.01;;;;;;;-4.03;83.01;102479.61;462929;113;922493;-68
2022/03/14 00:12:23;;;;;;;26.24;19.33;;;;;;;-4.04;83.01;102473.41;466314;113;922840;-67
2022/03/14 00:13:26;;;;;;;25.63;19.74;;;;;;;-4.05;82.90;102474.34;462938;113;930414;-68
2022/03/14 00:14:29;;;;;;;26.57;18.95;;;;;;;-4.06;82.89;102477.94;463341;113;922634;-68
2022/03/14 00:15:33;;;;;;;26.46;19.33;;;;;;;-4.06;82.87;102479.73;463197;113;922878;-68
2022/03/14 00:16:41;;;;;;;22.69;18.75;;;;;;;-4.07;82.79;102476.20;465779;113;922475;-68
2022/03/14 00:17:45;;;;;;;23.41;18.41;;;;;;;-4.08;82.63;102478.97;464832;113;922616;-68
2022/03/14 00:18:50;;;;;;;23.96;17.91;;;;;;;-4.12;82.55;102480.03;462157;113;922552;-68
2022/03/14 00:19:58;;;;;;;20.39;18.03;;;;;;;-4.15;82.45;102474.87;463061;113;930460;-68
2022/03/14 00:21:02;;;;;;;23.68;17.39;;;;;;;-4.20;82.19;102480.42;465235;113;922785;-68
2022/03/14 00:22:06;;;;;;;26.94;18.82;;;;;;;-4.28;81.95;102480.78;466726;113;922538;-67
2022/03/14 00:23:09;;;;;;;22.92;16.99;;;;;;;-4.34;81.86;102474.88;466588;113;922677;-68
2022/03/14 00:24:13;;;;;;;23.28;17.54;;;;;;;-4.40;81.78;102477.83;466046;113;922580;-68
2022/03/14 00:25:16;;;;;;;22.62;17.00;;;;;;;-4.45;81.78;102480.71;466215;113;926426;-68
2022/03/14 00:26:22;;;;;;;21.42;16.55;;;;;;;-4.50;81.83;102480.06;464745;113;922682;-68
2022/03/14 00:27:27;;;;;;;22.94;17.02;;;;;;;-4.55;81.67;102482.08;465188;113;922478;-68
2022/03/14 00:28:30;;;;;;;21.98;16.70;;;;;;;-4.58;81.62;102484.03;466185;113;922608;-66
2022/03/14 00:29:34;;;;;;;22.04;17.09;;;;;;;-4.63;81.49;102481.56;465752;113;922661;-70
2022/03/14 00:30:37;;;;;;;19.58;15.61;;;;;;;-4.68;81.49;102486.23;462802;113;922587;-69
2022/03/14 00:31:40;;;;;;;18.68;16.17;;;;;;;-4.72;81.50;102488.19;463837;113;930511;-68
2022/03/14 00:32:44;;;;;;;19.55;15.94;;;;;;;-4.74;81.61;102490.04;464954;113;922599;-66
2022/03/14 00:33:47;;;;;;;20.93;17.46;;;;;;;-4.74;81.59;102494.53;465896;113;930504;-68
2022/03/14 00:34:51;;;;;;;28.04;18.42;;;;;;;-4.74;81.71;102494.53;465888;113;922633;-69
2022/03/14 00:35:56;;;;;;;24.88;17.83;;;;;;;-4.75;81.66;102495.45;462975;113;924520;-68
2022/03/14 00:36:59;;;;;;;23.87;18.76;;;;;;;-4.78;81.59;102488.46;463982;113;922699;-68
2022/03/14 00:38:03;;;;;;;24.40;18.44;;;;;;;-4.82;81.46;102497.53;466892;113;923165;-68
2022/03/14 00:39:06;;;;;;;23.46;16.87;;;;;;;-4.85;81.35;102497.65;464231;113;930571;-67
2022/03/14 00:40:11;;;;;;;31.30;19.58;;;;;;;-4.89;81.30;102492.54;464377;113;922647;-68
2022/03/14 00:41:17;;;;;;;29.06;18.13;;;;;;;-4.93;81.27;102491.83;461711;113;922768;-67
2022/03/14 00:42:23;;;;;;;27.68;18.25;;;;;;;-4.96;81.21;102502.59;466474;113;922678;-68
2022/03/14 00:43:28;;;;;;;28.05;17.94;;;;;;;-4.98;81.23;102491.17;465096;113;922668;-68
2022/03/14 00:44:31;;;;;;;27.65;18.82;;;;;;;-5.00;81.18;102494.81;464233;113;922912;-68
2022/03/14 00:45:34;;;;;;;26.68;17.77;;;;;;;-5.03;81.19;102497.63;465348;113;923085;-68
2022/03/14 00:46:39;;;;;;;24.43;17.37;;;;;;;-5.06;81.12;102493.30;464301;113;923181;-69
2022/03/14 00:47:43;;;;;;;24.14;17.68;;;;;;;-5.08;81.09;102495.18;464136;113;922641;-70
2022/03/14 00:48:47;;;;;;;22.79;17.05;;;;;;;-5.11;81.17;102488.19;463199;113;922605;-69
2022/03/14 00:49:50;;;;;;;20.82;17.57;;;;;;;-5.12;81.17;102498.88;462506;113;922664;-68
2022/03/14 00:50:54;;;;;;;24.00;17.61;;;;;;;-5.14;81.10;102498.97;462439;113;924811;-68
2022/03/14 00:51:57;;;;;;;22.95;17.13;;;;;;;-5.15;80.99;102499.03;463017;113;930445;-68
2022/03/14 00:53:01;;;;;;;24.09;17.76;;;;;;;-5.17;80.94;102495.56;465759;113;922534;-69
2022/03/14 00:54:05;;;;;;;20.32;16.09;;;;;;;-5.18;80.95;102500.02;462124;113;922641;-67
2022/03/14 00:55:09;;;;;;;25.58;18.37;;;;;;;-5.18;81.00;102493.86;462575;113;922686;-68
2022/03/14 00:56:14;;;;;;;25.32;16.43;;;;;;;-5.18;81.03;102499.18;462638;113;922610;-68
2022/03/14 00:57:18;;;;;;;28.20;18.69;;;;;;;-5.18;81.08;102502.67;464282;113;930569;-68
2022/03/14 00:58:21;;;;;;;32.94;18.00;;;;;;;-5.17;81.07;102503.54;465826;113;922570;-69
2022/03/14 00:59:24;;;;;;;28.66;17.69;;;;;;;-5.16;81.16;102505.27;466627;113;922603;-69
2022/03/14 01:00:28;;;;;;;25.86;18.19;;;;;;;-5.14;81.22;102503.42;462045;113;930573;-69
2022/03/14 01:01:31;;;;;;;29.41;19.68;;;;;;;-5.11;81.38;102501.48;464597;113;930489;-68
2022/03/14 01:02:35;;;;;;;27.93;20.01;;;;;;;-5.08;81.37;102501.36;466394;113;922567;-68
2022/03/14 01:03:39;;;;;;;27.23;19.98;;;;;;;-5.04;81.45;102491.44;466623;113;922942;-68
2022/03/14 01:04:42;;;;;;;28.24;19.31;;;;;;;-5.00;81.51;102492.16;463574;113;922684;-69
2022/03/14 01:05:45;;;;;;;24.91;17.39;;;;;;;-4.96;81.60;102502.59;465691;113;922539;-68
2022/03/14 01:06:49;;;;;;;23.96;18.97;;;;;;;-4.93;81.63;102498.94;466906;113;922846;-68
2022/03/14 01:07:52;;;;;;;24.46;18.16;;;;;;;-4.89;81.64;102495.20;464748;113;931105;-68
2022/03/14 01:08:56;;;;;;;24.09;18.35;;;;;;;-4.85;81.65;102499.47;466126;113;923079;-68
2022/03/14 01:09:59;;;;;;;24.71;17.99;;;;;;;-4.83;81.76;102501.11;463749;113;922563;-66
2022/03/14 01:11:02;;;;;;;21.74;17.36;;;;;;;-4.78;81.90;102507.09;463567;113;923159;-67
2022/03/14 01:12:06;;;;;;;24.35;17.03;;;;;;;-4.75;81.82;102504.30;462582;113;922959;-69
2022/03/14 01:13:11;;;;;;;17.31;15.26;;;;;;;-4.72;81.85;102500.63;462097;113;927324;-69
2022/03/14 01:14:14;;;;;;;20.41;15.56;;;;;;;-4.71;81.83;102505.02;464588;113;922630;-68
2022/03/14 01:15:18;;;;;;;19.91;16.44;;;;;;;-4.68;81.94;102505.73;461452;113;922578;-69
2022/03/14 01:16:21;;;;;;;18.45;15.04;;;;;;;-4.67;81.78;102502.14;462715;113;922583;-70
2022/03/14 01:17:24;;;;;;;17.36;14.96;;;;;;;-4.65;81.79;102504.74;464277;113;922911;-67
2022/03/14 01:18:28;;;;;;;21.38;15.77;;;;;;;-4.62;81.70;102507.25;462939;113;922654;-69
2022/03/14 01:19:31;;;;;;;22.46;15.39;;;;;;;-4.62;81.71;102500.13;464890;113;930714;-67
2022/03/14 01:20:34;;;;;;;21.30;14.99;;;;;;;-4.60;81.57;102507.19;466805;113;923239;-68
2022/03/14 01:21:39;;;;;;;16.79;14.40;;;;;;;-4.60;81.38;102509.84;462726;113;930473;-68
2022/03/14 01:22:42;;;;;;;19.02;15.13;;;;;;;-4.60;81.37;102507.19;464868;113;922927;-67
2022/03/14 01:23:46;;;;;;;17.19;14.31;;;;;;;-4.59;81.33;102508.92;464262;113;922983;-68
2022/03/14 01:24:49;;;;;;;19.01;15.12;;;;;;;-4.59;81.37;102514.23;463062;113;930447;-70
2022/03/14 01:25:52;;;;;;;20.27;14.78;;;;;;;-4.59;81.26;102504.46;463030;113;922945;-67
2022/03/14 01:26:56;;;;;;;17.91;15.60;;;;;;;-4.59;81.34;102512.45;466519;113;922617;-68
2022/03/14 01:27:59;;;;;;;26.27;15.62;;;;;;;-4.59;81.25;102508.92;466215;113;922510;-67
2022/03/14 01:29:03;;;;;;;18.39;15.28;;;;;;;-4.59;81.05;102514.23;462837;113;923021;-66
2022/03/14 01:30:07;;;;;;;17.25;15.11;;;;;;;-4.60;80.96;102512.51;465226;113;922678;-68
2022/03/14 01:31:10;;;;;;;18.72;15.08;;;;;;;-4.62;80.87;102521.42;453487;116;922969;-65
2022/03/14 01:32:13;;;;;;;23.97;16.64;;;;;;;-4.63;80.92;102514.36;450663;115;923035;-67
2022/03/14 01:33:17;;;;;;;21.31;15.81;;;;;;;-4.65;80.80;102513.59;460589;115;923047;-69
2022/03/14 01:34:20;;;;;;;17.63;15.40;;;;;;;-4.65;80.85;102516.25;459898;115;922596;-67
2022/03/14 01:35:23;;;;;;;18.12;15.09;;;;;;;-4.65;80.90;102515.39;458824;115;922889;-68
2022/03/14 01:36:27;;;;;;;17.38;15.17;;;;;;;-4.65;80.79;102510.06;461175;115;923059;-69
2022/03/14 01:37:31;;;;;;;19.94;15.73;;;;;;;-4.66;80.64;102519.84;460337;115;922622;-69
2022/03/14 01:38:36;;;;;;;22.77;16.66;;;;;;;-4.69;80.68;102514.67;461195;115;922592;-67
2022/03/14 01:39:39;;;;;;;17.41;14.83;;;;;;;-4.70;80.63;102518.27;459018;115;922486;-67
2022/03/14 01:40:43;;;;;;;20.43;16.05;;;;;;;-4.71;80.68;102518.33;461370;115;922802;-67
2022/03/14 01:41:47;;;;;;;22.46;15.57;;;;;;;-4.72;80.69;102512.14;461368;115;930518;-70
2022/03/14 01:42:51;;;;;;;17.91;15.76;;;;;;;-4.73;80.66;102512.20;458925;115;922467;-68
2022/03/14 01:43:55;;;;;;;16.48;14.14;;;;;;;-4.74;80.71;102515.81;458886;115;930545;-67
2022/03/14 01:44:59;;;;;;;20.25;16.06;;;;;;;-4.77;80.61;102514.14;459767;115;922981;-67
2022/03/14 01:46:02;;;;;;;17.38;15.58;;;;;;;-4.78;80.55;102515.07;459250;115;930883;-68
2022/03/14 01:47:08;;;;;;;20.77;16.16;;;;;;;-4.81;80.43;102509.91;458391;115;930498;-69
2022/03/14 01:48:11;;;;;;;20.26;16.01;;;;;;;-4.84;80.43;102515.34;458977;115;922641;-69
2022/03/14 01:49:15;;;;;;;17.08;15.22;;;;;;;-4.89;80.17;102504.05;461284;115;922563;-67
2022/03/14 01:50:20;;;;;;;17.71;15.86;;;;;;;-4.92;80.04;102509.52;461246;115;922729;-70
2022/03/14 01:51:23;;;;;;;17.32;14.62;;;;;;;-4.97;80.02;102514.19;459910;115;922777;-68
2022/03/14 01:52:26;;;;;;;19.27;15.58;;;;;;;-5.00;79.98;102508.98;458702;115;922721;-67
2022/03/14 01:53:32;;;;;;;17.72;14.98;;;;;;;-5.06;79.96;102518.09;458644;115;930570;-67
2022/03/14 01:54:36;;;;;;;17.15;14.71;;;;;;;-5.08;80.02;102516.45;458577;115;930566;-68
2022/03/14 01:55:40;;;;;;;15.36;13.81;;;;;;;-5.12;80.07;102514.84;461109;115;923381;-69
2022/03/14 01:56:44;;;;;;;17.89;13.79;;;;;;;-5.13;80.00;102513.14;460926;115;922912;-68
2022/03/14 01:57:47;;;;;;;13.64;12.29;;;;;;;-5.15;80.02;102514.98;461370;115;923014;-68
2022/03/14 01:58:52;;;;;;;15.29;13.68;;;;;;;-5.16;80.09;102513.25;461342;115;922594;-68
2022/03/14 01:59:56;;;;;;;14.07;12.64;;;;;;;-5.19;80.01;102516.92;459222;115;923081;-69
2022/03/14 02:01:00;;;;;;;12.81;11.48;;;;;;;-5.22;80.00;102518.83;461201;115;922619;-69
2022/03/14 02:02:04;;;;;;;15.14;13.61;;;;;;;-5.26;79.81;102512.80;460558;115;922731;-69
2022/03/14 02:03:08;;;;;;;14.61;11.92;;;;;;;-5.30;79.72;102508.55;461341;115;922568;-67
2022/03/14 02:04:11;;;;;;;16.56;12.59;;;;;;;-5.33;79.69;102516.64;460681;115;922757;-67
2022/03/14 02:05:15;;;;;;;14.38;12.88;;;;;;;-5.37;79.74;102516.84;459129;115;930312;-68
2022/03/14 02:06:19;;;;;;;13.68;12.18;;;;;;;-5.39;79.71;102510.72;460972;115;922652;-68
2022/03/14 02:07:23;;;;;;;14.22;12.75;;;;;;;-5.41;79.82;102517.91;459662;115;922645;-68
2022/03/14 02:08:26;;;;;;;14.33;12.17;;;;;;;-5.44;79.78;102510.92;458828;115;922857;-67
2022/03/14 02:09:30;;;;;;;13.23;11.84;;;;;;;-5.46;79.79;102526.09;459707;115;922603;-67
2022/03/14 02:10:34;;;;;;;14.49;12.98;;;;;;;-5.47;79.67;102524.35;461114;115;922893;-67
2022/03/14 02:11:37;;;;;;;13.11;11.74;;;;;;;-5.50;79.76;102530.64;461244;115;922727;-67
2022/03/14 02:12:45;;;;;;;15.03;12.41;;;;;;;-5.51;79.76;102528.05;461357;115;922516;-68
2022/03/14 02:13:48;;;;;;;13.68;12.30;;;;;;;-5.52;79.74;102527.21;461279;115;930301;-68
2022/03/14 02:14:51;;;;;;;13.72;12.01;;;;;;;-5.53;79.68;102524.61;461561;115;922627;-67
2022/03/14 02:15:54;;;;;;;13.71;12.24;;;;;;;-5.56;79.74;102536.21;461561;115;922925;-67
2022/03/14 02:16:58;;;;;;;13.25;11.39;;;;;;;-5.57;79.68;102528.33;459839;115;922881;-69
2022/03/14 02:18:02;;;;;;;15.80;11.18;;;;;;;-5.58;79.64;102526.59;458546;115;930416;-66
2022/03/14 02:19:05;;;;;;;14.89;12.61;;;;;;;-5.59;79.59;102540.80;460167;115;923124;-67
2022/03/14 02:20:10;;;;;;;14.35;12.89;;;;;;;-5.59;79.66;102531.05;461483;115;922910;-68
2022/03/14 02:21:13;;;;;;;13.47;11.92;;;;;;;-5.60;79.61;102536.41;459469;115;922670;-69
2022/03/14 02:22:17;;;;;;;13.28;11.90;;;;;;;-5.61;79.67;102538.20;461012;115;922675;-68
2022/03/14 02:23:21;;;;;;;14.98;13.32;;;;;;;-5.61;79.61;102527.57;461056;115;922523;-67
2022/03/14 02:24:26;;;;;;;14.22;12.81;;;;;;;-5.61;79.58;102534.67;458568;115;930301;-68
2022/03/14 02:25:32;;;;;;;14.83;13.14;;;;;;;-5.63;79.57;102532.11;460875;115;922998;-66
2022/03/14 02:26:39;;;;;;;14.14;12.71;;;;;;;-5.64;79.51;102532.16;459522;115;923073;-66
2022/03/14 02:27:43;;;;;;;15.45;13.26;;;;;;;-5.66;79.55;102534.00;460646;115;922592;-68
2022/03/14 02:28:46;;;;;;;13.48;11.93;;;;;;;-5.67;79.53;102533.14;461160;115;922720;-68
2022/03/14 02:29:50;;;;;;;14.98;13.44;;;;;;;-5.67;79.54;102529.61;460435;115;922634;-66
2022/03/14 02:30:53;;;;;;;14.18;12.76;;;;;;;-5.67;79.67;102530.48;461216;115;922582;-68
2022/03/14 02:31:57;;;;;;;14.53;11.30;;;;;;;-5.65;79.66;102531.30;459782;115;922513;-66
2022/03/14 02:33:01;;;;;;;14.60;13.02;;;;;;;-5.65;79.66;102535.73;460156;115;922449;-68
2022/03/14 02:34:06;;;;;;;14.95;13.39;;;;;;;-5.65;79.66;102536.61;460831;115;922619;-69
2022/03/14 02:35:10;;;;;;;15.10;13.21;;;;;;;-5.64;79.69;102534.81;461283;115;930349;-67
2022/03/14 02:36:14;;;;;;;13.40;12.11;;;;;;;-5.63;79.67;102534.77;459844;115;930355;-67
2022/03/14 02:37:17;;;;;;;14.85;13.24;;;;;;;-5.63;79.79;102529.45;461603;115;922811;-67
2022/03/14 02:38:20;;;;;;;16.34;12.76;;;;;;;-5.61;79.76;102532.89;461422;115;922535;-67
2022/03/14 02:39:24;;;;;;;15.93;13.54;;;;;;;-5.61;79.66;102532.02;459870;115;930301;-68
2022/03/14 02:40:27;;;;;;;15.48;12.64;;;;;;;-5.62;79.62;102546.23;452841;116;922662;-68
2022/03/14 02:41:32;;;;;;;14.47;13.02;;;;;;;-5.63;79.57;102541.87;451467;115;930563;-68
2022/03/14 02:42:35;;;;;;;14.85;12.15;;;;;;;-5.65;79.50;102538.40;461336;115;930395;-67
2022/03/14 02:43:39;;;;;;;14.39;12.91;;;;;;;-5.66;79.49;102542.84;458824;115;930363;-66
2022/03/14 02:44:42;;;;;;;16.28;12.81;;;;;;;-5.66;79.63;102539.31;461406;115;922912;-69
2022/03/14 02:45:47;;;;;;;17.08;13.51;;;;;;;-5.67;79.54;102546.42;461440;115;922595;-67
2022/03/14 02:46:53;;;;;;;15.11;13.31;;;;;;;-5.67;79.66;102541.11;461126;115;922700;-66
2022/03/14 02:47:57;;;;;;;15.29;12.98;;;;;;;-5.65;79.74;102539.27;461268;115;922757;-67
2022/03/14 02:49:01;;;;;;;13.69;11.79;;;;;;;-5.62;79.92;102546.23;461535;115;922487;-67
2022/03/14 02:50:05;;;;;;;15.55;12.86;;;;;;;-5.60;80.01;102547.91;461508;115;922675;-68
2022/03/14 02:51:09;;;;;;;14.37;12.06;;;;;;;-5.53;80.15;102549.39;460099;115;922601;-67
2022/03/14 02:52:12;;;;;;;13.49;12.09;;;;;;;-5.49;80.29;102547.46;459808;115;922667;-67
2022/03/14 02:53:15;;;;;;;12.47;11.27;;;;;;;-5.43;80.33;102551.66;459832;113;923044;-69
2022/03/14 02:54:19;;;;;;;13.44;11.62;;;;;;;-5.39;80.35;102547.92;458738;115;922918;-68
2022/03/14 02:55:25;;;;;;;13.13;11.79;;;;;;;-5.35;80.40;102546.89;459258;115;922556;-71
2022/03/14 02:56:28;;;;;;;13.51;11.59;;;;;;;-5.31;80.33;102548.48;458641;115;922481;-69
2022/03/14 02:57:32;;;;;;;12.79;11.36;;;;;;;-5.28;80.25;102549.20;461125;115;923038;-68
2022/03/14 02:58:39;;;;;;;12.73;11.01;;;;;;;-5.25;80.16;102540.25;459342;115;922698;-69
2022/03/14 02:59:40;;;;;;;13.67;11.91;;;;;;;-5.25;80.16;102540.25;459451;115;930445;-68
2022/03/14 03:00:44;;;;;;;15.52;13.27;;;;;;;-5.26;80.05;102534.06;460914;115;922677;-67
2022/03/14 03:01:47;;;;;;;13.10;11.79;;;;;;;-5.26;79.92;102543.83;461174;115;922506;-66
2022/03/14 03:02:51;;;;;;;16.09;12.48;;;;;;;-5.30;79.79;102548.42;461379;115;930377;-69
2022/03/14 03:03:55;;;;;;;14.22;12.82;;;;;;;-5.35;79.56;102542.45;461371;115;922575;-67
2022/03/14 03:04:58;;;;;;;14.82;13.13;;;;;;;-5.37;79.58;102554.06;461570;115;922585;-68
2022/03/14 03:06:03;;;;;;;17.56;13.89;;;;;;;-5.41;79.48;102545.36;458543;115;922817;-68
2022/03/14 03:07:06;;;;;;;18.28;14.11;;;;;;;-5.47;79.43;102549.14;460271;115;922692;-66
2022/03/14 03:08:11;;;;;;;14.72;13.24;;;;;;;-5.49;79.33;102550.12;458923;115;922544;-66
2022/03/14 03:09:15;;;;;;;16.71;14.26;;;;;;;-5.53;79.37;102552.05;460673;115;922549;-66
2022/03/14 03:10:20;;;;;;;15.31;13.66;;;;;;;-5.56;79.40;102551.29;461418;115;922557;-67
2022/03/14 03:11:23;;;;;;;17.92;13.46;;;;;;;-5.59;79.40;102552.30;461327;115;922969;-69
2022/03/14 03:12:30;;;;;;;17.79;14.28;;;;;;;-5.62;79.33;102546.23;461444;115;922735;-67
2022/03/14 03:13:35;;;;;;;16.09;13.46;;;;;;;-5.65;79.44;102552.55;461297;115;922899;-67
2022/03/14 03:14:37;;;;;;;17.11;13.57;;;;;;;-5.68;79.37;102550.00;461329;115;922884;-70
2022/03/14 03:15:40;;;;;;;14.81;12.91;;;;;;;-5.68;79.48;102551.82;458962;115;922534;-67
2022/03/14 03:16:45;;;;;;;17.00;13.95;;;;;;;-5.69;79.46;102556.27;458543;115;922964;-69
2022/03/14 03:17:49;;;;;;;16.74;13.89;;;;;;;-5.70;79.54;102553.66;461403;115;930406;-67
2022/03/14 03:18:53;;;;;;;18.09;14.48;;;;;;;-5.71;79.43;102554.59;461580;115;922639;-68
2022/03/14 03:19:57;;;;;;;14.82;13.08;;;;;;;-5.73;79.53;102554.64;461495;115;922635;-67
2022/03/14 03:21:00;;;;;;;14.89;13.19;;;;;;;-5.73;79.57;102549.33;461447;115;922492;-68
2022/03/14 03:22:04;;;;;;;15.31;13.60;;;;;;;-5.73;79.58;102548.49;459668;115;922668;-67
2022/03/14 03:23:08;;;;;;;14.30;12.87;;;;;;;-5.74;79.49;102552.94;461228;115;923013;-67
2022/03/14 03:24:13;;;;;;;15.82;14.28;;;;;;;-5.75;79.47;102551.20;460850;115;923073;-67
2022/03/14 03:25:17;;;;;;;16.99;13.51;;;;;;;-5.75;79.38;102547.67;460526;115;922802;-66
2022/03/14 03:26:21;;;;;;;16.93;13.98;;;;;;;-5.76;79.46;102546.81;459469;115;922746;-67
2022/03/14 03:27:25;;;;;;;14.18;12.79;;;;;;;-5.75;79.48;102555.65;461387;115;922534;-69
2022/03/14 03:28:35;;;;;;;15.15;13.61;;;;;;;-5.77;79.43;102552.17;461541;115;923013;-67
2022/03/14 03:29:36;;;;;;;16.66;13.57;;;;;;;-5.79;79.44;102549.61;458591;115;922918;-65
2022/03/14 03:30:40;;;;;;;15.48;12.84;;;;;;;-5.79;79.44;102548.73;461375;115;922670;-69
2022/03/14 03:31:43;;;;;;;14.01;12.67;;;;;;;-5.80;79.45;102558.49;461449;115;930515;-67
2022/03/14 03:32:48;;;;;;;14.67;12.82;;;;;;;-5.80;79.48;102547.00;461315;115;922800;-68
2022/03/14 03:33:51;;;;;;;13.61;12.16;;;;;;;-5.79;79.39;102549.61;461286;115;923145;-68
2022/03/14 03:34:54;;;;;;;14.26;12.24;;;;;;;-5.80;79.37;102558.49;458826;115;923087;-67
2022/03/14 03:35:58;;;;;;;13.74;12.32;;;;;;;-5.79;79.43;102556.70;458574;115;922704;-67
2022/03/14 03:37:01;;;;;;;13.94;12.45;;;;;;;-5.79;79.48;102552.27;461143;115;927395;-66
2022/03/14 03:38:08;;;;;;;15.69;12.29;;;;;;;-5.78;79.50;102551.30;461325;115;922562;-67
2022/03/14 03:39:11;;;;;;;13.66;12.24;;;;;;;-5.76;79.54;102556.56;459791;115;922530;-69
2022/03/14 03:40:16;;;;;;;13.14;11.71;;;;;;;-5.77;79.58;102553.05;460903;115;922542;-68
2022/03/14 03:41:22;;;;;;;14.35;12.30;;;;;;;-5.78;79.49;102543.34;458852;115;923053;-67
2022/03/14 03:42:25;;;;;;;13.40;12.04;;;;;;;-5.78;79.38;102553.09;459305;115;922522;-67
2022/03/14 03:43:29;;;;;;;13.82;12.42;;;;;;;-5.79;79.39;102548.73;459048;115;922538;-68
2022/03/14 03:44:32;;;;;;;13.48;11.85;;;;;;;-5.80;79.42;102547.00;461478;115;922535;-68
2022/03/14 03:45:36;;;;;;;13.66;12.36;;;;;;;-5.80;79.53;102544.34;460439;115;930490;-69
2022/03/14 03:46:39;;;;;;;13.99;11.44;;;;;;;-5.81;79.53;102546.13;459341;114;930462;-66
2022/03/14 03:47:42;;;;;;;14.08;12.61;;;;;;;-5.82;79.50;102541.74;458467;115;928038;-68
2022/03/14 03:48:46;;;;;;;12.28;11.08;;;;;;;-5.81;79.56;102534.64;458573;115;922917;-67
2022/03/14 03:49:49;;;;;;;13.08;11.78;;;;;;;-5.81;79.55;102531.98;459010;115;922602;-66
2022/03/14 03:50:52;;;;;;;13.59;11.79;;;;;;;-5.82;79.58;102533.77;461002;115;923189;-67
2022/03/14 03:51:57;;;;;;;14.58;12.84;;;;;;;-5.82;79.60;102522.28;461222;115;926228;-67
2022/03/14 03:53:00;;;;;;;13.58;12.24;;;;;;;-5.83;79.61;102525.86;458875;115;922702;-69
2022/03/14 03:54:04;;;;;;;14.96;13.13;;;;;;;-5.84;79.48;102527.64;461038;115;922968;-68
2022/03/14 03:55:08;;;;;;;16.93;13.51;;;;;;;-5.84;79.66;102526.81;461489;115;922631;-66
2022/03/14 03:56:16;;;;;;;14.88;13.34;;;;;;;-5.84;79.59;102530.30;460698;115;923112;-66
2022/03/14 03:57:19;;;;;;;15.66;12.49;;;;;;;-5.84;79.57;102524.98;460213;114;922621;-68
2022/03/14 03:58:22;;;;;;;14.64;12.29;;;;;;;-5.84;79.53;102524.16;458708;115;922564;-68
2022/03/14 03:59:26;;;;;;;13.81;12.33;;;;;;;-5.84;79.58;102529.47;460761;115;930346;-68
2022/03/14 04:00:29;;;;;;;15.09;12.09;;;;;;;-5.85;79.65;102523.28;461494;115;922516;-69
2022/03/14 04:01:32;;;;;;;12.34;11.14;;;;;;;-5.85;79.66;102527.73;460169;115;922564;-69
2022/03/14 04:02:39;;;;;;;11.67;10.54;;;;;;;-5.84;79.68;102521.50;458420;115;930989;-67
2022/03/14 04:03:42;;;;;;;11.69;10.51;;;;;;;-5.84;79.64;102522.34;460855;115;922645;-68
2022/03/14 04:04:50;;;;;;;12.19;10.62;;;;;;;-5.83;79.72;102518.75;461404;115;922511;-67
2022/03/14 04:05:53;;;;;;;10.38;8.61;;;;;;;-5.81;79.85;102516.05;461140;115;922593;-68
2022/03/14 04:06:57;;;;;;;13.18;9.78;;;;;;;-5.79;79.77;102519.52;460784;115;922494;-67
2022/03/14 04:08:02;;;;;;;9.16;8.30;;;;;;;-5.80;79.80;102513.34;458756;115;922707;-67
2022/03/14 04:09:06;;;;;;;9.79;8.85;;;;;;;-5.80;79.71;102517.78;458461;115;922853;-68
2022/03/14 04:10:11;;;;;;;10.58;9.16;;;;;;;-5.81;79.76;102516.91;458669;115;930854;-67
2022/03/14 04:11:15;;;;;;;12.28;8.87;;;;;;;-5.80;79.79;102515.99;458970;114;922550;-68
2022/03/14 04:12:18;;;;;;;9.24;8.27;;;;;;;-5.78;79.95;102521.22;458741;115;922736;-67
2022/03/14 04:13:24;;;;;;;8.75;7.74;;;;;;;-5.78;79.96;102519.43;458853;115;930658;-67
2022/03/14 04:14:27;;;;;;;9.09;8.23;;;;;;;-5.76;80.02;102516.72;458479;115;924596;-67
2022/03/14 04:15:30;;;;;;;8.95;7.99;;;;;;;-5.76;80.06;102512.27;458890;115;922990;-68
2022/03/14 04:16:34;;;;;;;11.36;8.68;;;;;;;-5.75;80.16;102514.02;458916;115;923113;-66
2022/03/14 04:17:40;;;;;;;8.96;7.89;;;;;;;-5.74;80.19;102515.74;459886;115;922996;-67
2022/03/14 04:18:43;;;;;;;9.08;8.20;;;;;;;-5.71;80.29;102514.73;461282;115;930470;-69
2022/03/14 04:19:48;;;;;;;8.71;7.81;;;;;;;-5.69;80.33;102512.89;461556;115;922586;-67
2022/03/14 04:20:52;;;;;;;9.09;7.51;;;;;;;-5.69;80.23;102513.76;461687;115;922918;-66
2022/03/14 04:21:56;;;;;;;8.58;7.75;;;;;;;-5.67;80.26;102517.20;461768;115;930979;-70
2022/03/14 04:23:00;;;;;;;8.88;7.98;;;;;;;-5.65;80.29;102519.80;461865;115;922615;-66
2022/03/14 04:24:06;;;;;;;9.35;7.48;;;;;;;-5.64;80.26;102526.84;461735;115;922739;-68
2022/03/14 04:25:11;;;;;;;9.85;7.99;;;;;;;-5.64;80.33;102518.88;460673;115;922968;-68
2022/03/14 04:26:15;;;;;;;10.54;8.45;;;;;;;-5.63;80.30;102518.82;458991;115;922838;-67
2022/03/14 04:27:18;;;;;;;9.10;8.10;;;;;;;-5.61;80.41;102516.94;458783;115;922649;-65
2022/03/14 04:28:22;;;;;;;9.70;8.63;;;;;;;-5.58;80.50;102523.94;459105;115;922552;-68
2022/03/14 04:29:26;;;;;;;8.04;7.24;;;;;;;-5.56;80.47;102524.72;459008;115;922896;-68
2022/03/14 04:30:29;;;;;;;10.04;9.04;;;;;;;-5.53;80.56;102536.10;459290;115;922450;-68
2022/03/14 04:31:32;;;;;;;9.82;8.39;;;;;;;-5.50;80.59;102530.64;459351;115;922793;-68
2022/03/14 04:32:36;;;;;;;12.77;9.41;;;;;;;-5.46;80.70;102537.55;461933;114;922456;-67
2022/03/14 04:33:39;;;;;;;10.43;9.03;;;;;;;-5.43;80.75;102530.39;465224;113;922427;-67
2022/03/14 04:34:42;;;;;;;13.96;9.06;;;;;;;-5.41;80.71;102531.20;466910;113;922321;-66
2022/03/14 04:35:45;;;;;;;11.24;9.78;;;;;;;-5.39;80.64;102534.64;466656;113;922438;-67
2022/03/14 04:36:54;;;;;;;10.61;9.15;;;;;;;-5.39;80.69;102527.53;466684;113;922603;-67
2022/03/14 04:37:55;;;;;;;11.04;9.57;;;;;;;-5.37;80.65;102538.11;466511;113;922619;-68
2022/03/14 04:38:58;;;;;;;13.11;9.76;;;;;;;-5.36;80.63;102529.20;464968;113;922521;-69
2022/03/14 04:40:02;;;;;;;11.22;9.64;;;;;;;-5.36;80.57;102526.55;463363;113;922383;-68
2022/03/14 04:41:05;;;;;;;9.68;8.75;;;;;;;-5.35;80.61;102520.31;463860;113;922708;-66
2022/03/14 04:42:09;;;;;;;12.16;9.53;;;;;;;-5.33;80.68;102526.41;465328;113;930347;-68
2022/03/14 04:43:13;;;;;;;12.83;10.29;;;;;;;-5.32;80.64;102522.83;464817;113;922699;-67
2022/03/14 04:44:16;;;;;;;12.91;10.38;;;;;;;-5.30;80.64;102520.98;463434;113;922552;-68
2022/03/14 04:45:19;;;;;;;12.07;10.81;;;;;;;-5.29;80.70;102520.05;464739;113;922652;-68
2022/03/14 04:46:25;;;;;;;11.31;10.16;;;;;;;-5.28;80.71;102519.96;465299;113;922606;-68
2022/03/14 04:47:28;;;;;;;12.64;9.78;;;;;;;-5.25;80.78;102526.95;466808;113;922741;-69